Time;durP1;ratioP1;P1;durP2;ratioP2;P2;SDS_P1;SDS_P2;PMS_P1;PMS_P2;Temp;Humidity;BMP_temperature;BMP_pressure;BME280_temperature;BME280_humidity;BME280_pressure;Samples;Min_cycle;Max_cycle;Signal;HPM_P1;HPM_P2
2024/02/16 00:00:48;;;;;;;7.10;4.40;;;;;;;;;;5044319;28;20502;-82
2024/02/16 00:03:14;;;;;;;4.23;3.63;;;;;;;;;;5045499;28;20879;-81
2024/02/16 00:05:43;;;;;;;5.00;4.50;;;;;;;;;;5045476;28;20412;-82
2024/02/16 00:08:09;;;;;;;6.63;4.40;;;;;;;;;;5044895;28;20471;-83
2024/02/16 00:10:35;;;;;;;5.50;3.60;;;;;;;;;;5043570;28;20996;-82
2024/02/16 00:13:01;;;;;;;7.93;5.20;;;;;;;;;;5045293;28;20166;-82
2024/02/16 00:15:27;;;;;;;7.50;4.47;;;;;;;;;;5044474;28;20419;-82
2024/02/16 00:17:53;;;;;;;9.37;4.63;;;;;;;;;;5043255;28;20494;-82
2024/02/16 00:20:23;;;;;;;6.03;4.80;;;;;;;;;;5045249;28;20465;-82
2024/02/16 00:22:49;;;;;;;6.47;4.27;;;;;;;;;;5059208;28;20443;-82
2024/02/16 00:25:15;;;;;;;6.00;4.47;;;;;;;;;;5042690;28;20447;-82
2024/02/16 00:27:41;;;;;;;8.67;4.97;;;;;;;;;;5044889;28;20530;-83
2024/02/16 00:30:10;;;;;;;7.57;3.80;;;;;;;;;;5044392;28;20427;-82
2024/02/16 00:32:36;;;;;;;6.20;4.17;;;;;;;;;;5041967;28;20411;-82
2024/02/16 00:35:05;;;;;;;5.33;4.87;;;;;;;;;;5044365;28;20418;-82
2024/02/16 00:37:31;;;;;;;6.87;3.90;;;;;;;;;;5044541;28;20439;-82
2024/02/16 00:39:57;;;;;;;8.00;3.70;;;;;;;;;;5042796;28;20443;-81
2024/02/16 00:42:23;;;;;;;7.37;3.53;;;;;;;;;;5044592;28;20254;-82
2024/02/16 00:44:49;;;;;;;9.00;4.00;;;;;;;;;;5044118;28;20514;-82
2024/02/16 00:47:18;;;;;;;7.17;4.07;;;;;;;;;;5042577;28;20523;-82
2024/02/16 00:49:44;;;;;;;4.30;3.57;;;;;;;;;;5043574;28;20930;-81
2024/02/16 00:52:10;;;;;;;6.53;3.10;;;;;;;;;;5044097;28;20562;-81
2024/02/16 00:54:37;;;;;;;4.83;3.33;;;;;;;;;;5042644;28;20176;-81
2024/02/16 00:57:04;;;;;;;8.03;3.57;;;;;;;;;;5059630;28;20425;-80
2024/02/16 00:59:30;;;;;;;5.27;3.40;;;;;;;;;;5044182;28;20428;-81
2024/02/16 01:01:58;;;;;;;5.93;3.20;;;;;;;;;;5042574;28;20411;-83
2024/02/16 01:04:24;;;;;;;6.47;3.10;;;;;;;;;;5043423;28;20700;-82
2024/02/16 01:06:50;;;;;;;3.57;2.87;;;;;;;;;;5044033;28;20493;-82
2024/02/16 01:09:16;;;;;;;6.23;3.87;;;;;;;;;;5057782;28;20435;-82
2024/02/16 01:11:42;;;;;;;5.13;3.03;;;;;;;;;;5044094;28;20414;-83
2024/02/16 01:14:09;;;;;;;7.77;2.90;;;;;;;;;;5043673;28;20768;-82
2024/02/16 01:16:35;;;;;;;7.57;3.67;;;;;;;;;;5042377;28;20442;-83
2024/02/16 01:19:01;;;;;;;5.90;3.47;;;;;;;;;;5043770;28;20848;-83
2024/02/16 01:21:27;;;;;;;5.63;3.17;;;;;;;;;;5043349;28;20455;-82
2024/02/16 01:23:53;;;;;;;7.07;3.67;;;;;;;;;;5042216;28;20445;-83
2024/02/16 01:26:19;;;;;;;4.90;3.13;;;;;;;;;;5059361;28;20410;-83
2024/02/16 01:28:45;;;;;;;3.83;2.90;;;;;;;;;;5042607;28;20471;-82
2024/02/16 01:31:11;;;;;;;6.47;3.50;;;;;;;;;;5042394;28;20440;-82
2024/02/16 01:33:38;;;;;;;5.00;3.13;;;;;;;;;;5043708;28;20812;-83
2024/02/16 01:36:04;;;;;;;5.57;3.27;;;;;;;;;;5057829;28;20504;-83
2024/02/16 01:38:30;;;;;;;4.63;3.33;;;;;;;;;;5042415;28;20414;-82
2024/02/16 01:40:56;;;;;;;5.43;3.70;;;;;;;;;;5043831;28;20420;-81
2024/02/16 01:43:22;;;;;;;5.30;3.60;;;;;;;;;;5042171;28;20739;-82
2024/02/16 01:45:48;;;;;;;6.43;3.80;;;;;;;;;;5057810;28;20187;-82
2024/02/16 01:48:15;;;;;;;5.90;3.47;;;;;;;;;;5043095;28;20484;-81
2024/02/16 01:50:44;;;;;;;5.90;3.60;;;;;;;;;;5039323;28;20554;-81
2024/02/16 01:53:11;;;;;;;6.20;3.77;;;;;;;;;;5042084;28;20447;-81
2024/02/16 01:55:36;;;;;;;8.80;3.17;;;;;;;;;;5043506;28;20412;-82
2024/02/16 01:58:03;;;;;;;6.80;3.53;;;;;;;;;;5057077;28;20475;-82
2024/02/16 02:00:29;;;;;;;8.80;3.83;;;;;;;;;;5042236;28;20452;-81
2024/02/16 02:02:57;;;;;;;4.90;2.60;;;;;;;;;;5058227;28;21004;-82
2024/02/16 02:05:22;;;;;;;6.57;3.97;;;;;;;;;;5041923;28;20494;-81
2024/02/16 02:07:49;;;;;;;4.70;3.07;;;;;;;;;;5042065;28;20604;-82
2024/02/16 02:10:19;;;;;;;5.67;3.43;;;;;;;;;;5043300;28;20250;-82
2024/02/16 02:12:45;;;;;;;5.60;3.43;;;;;;;;;;5042003;28;20408;-80
2024/02/16 02:15:11;;;;;;;7.87;4.63;;;;;;;;;;5041767;28;20410;-83
2024/02/16 02:17:39;;;;;;;5.63;3.43;;;;;;;;;;5042841;28;20458;-83
2024/02/16 02:20:09;;;;;;;5.40;2.90;;;;;;;;;;5041358;28;20420;-82
2024/02/16 02:22:34;;;;;;;5.00;3.57;;;;;;;;;;5042580;28;20547;-83
2024/02/16 02:25:00;;;;;;;5.70;3.03;;;;;;;;;;5038726;28;20495;-82
2024/02/16 02:27:26;;;;;;;6.23;3.67;;;;;;;;;;5040964;28;20828;-83
2024/02/16 02:29:52;;;;;;;5.50;3.53;;;;;;;;;;5042823;28;20422;-83
2024/02/16 02:32:19;;;;;;;6.63;3.47;;;;;;;;;;5040701;28;20409;-83
2024/02/16 02:34:45;;;;;;;8.63;3.90;;;;;;;;;;5042448;28;20185;-82
2024/02/16 02:37:11;;;;;;;8.10;3.10;;;;;;;;;;5042567;28;20487;-83
2024/02/16 02:39:37;;;;;;;4.87;3.40;;;;;;;;;;5041014;28;20498;-84
2024/02/16 02:42:03;;;;;;;8.20;3.50;;;;;;;;;;5059564;28;20478;-84
2024/02/16 02:44:31;;;;;;;4.17;3.10;;;;;;;;;;5042314;28;20472;-83
2024/02/16 02:46:57;;;;;;;7.53;3.27;;;;;;;;;;5056097;28;20819;-82
2024/02/16 02:49:23;;;;;;;8.23;3.50;;;;;;;;;;5042197;28;20442;-83
2024/02/16 02:51:51;;;;;;;5.20;3.43;;;;;;;;;;5042077;28;20416;-82
2024/02/16 02:54:17;;;;;;;4.17;3.27;;;;;;;;;;5040741;28;20183;-83
2024/02/16 02:56:43;;;;;;;8.23;3.53;;;;;;;;;;5044016;28;20805;-83
2024/02/16 02:59:10;;;;;;;6.73;3.70;;;;;;;;;;5046050;28;20507;-83
2024/02/16 03:01:36;;;;;;;6.10;3.77;;;;;;;;;;5044974;28;20419;-83
2024/02/16 03:04:02;;;;;;;6.73;3.20;;;;;;;;;;5046274;28;20461;-83
2024/02/16 03:06:28;;;;;;;10.07;3.40;;;;;;;;;;5045964;28;20423;-82
2024/02/16 03:08:54;;;;;;;6.30;3.17;;;;;;;;;;5044627;28;20537;-82
2024/02/16 03:11:20;;;;;;;5.07;3.13;;;;;;;;;;5046624;28;20409;-81
2024/02/16 03:13:46;;;;;;;4.80;3.70;;;;;;;;;;5045514;28;20435;-82
2024/02/16 03:16:12;;;;;;;8.47;3.67;;;;;;;;;;5060294;28;20491;-82
2024/02/16 03:18:39;;;;;;;3.97;3.33;;;;;;;;;;5046285;28;20410;-82
2024/02/16 03:21:05;;;;;;;5.73;2.60;;;;;;;;;;5045277;28;20948;-82
2024/02/16 03:23:31;;;;;;;5.13;2.87;;;;;;;;;;5044838;28;20422;-82
2024/02/16 03:25:57;;;;;;;7.63;3.83;;;;;;;;;;5046326;28;20418;-82
2024/02/16 03:28:25;;;;;;;6.30;3.40;;;;;;;;;;5044692;28;21101;-82
2024/02/16 03:30:51;;;;;;;7.10;3.57;;;;;;;;;;5060256;28;20452;-82
2024/02/16 03:33:17;;;;;;;4.90;3.27;;;;;;;;;;5045983;28;20445;-82
2024/02/16 03:35:43;;;;;;;5.80;3.00;;;;;;;;;;5044852;28;20529;-81
2024/02/16 03:38:10;;;;;;;4.03;2.57;;;;;;;;;;5044914;28;20736;-82
2024/02/16 03:40:36;;;;;;;3.57;2.60;;;;;;;;;;5046205;28;20804;-81
2024/02/16 03:43:02;;;;;;;4.30;3.10;;;;;;;;;;5044544;28;20406;-82
2024/02/16 03:45:28;;;;;;;5.10;2.63;;;;;;;;;;5045036;28;20426;-82
2024/02/16 03:47:54;;;;;;;4.87;2.17;;;;;;;;;;5045419;28;20480;-82
2024/02/16 03:50:21;;;;;;;6.77;2.80;;;;;;;;;;5041313;28;20501;-82
2024/02/16 03:52:46;;;;;;;4.53;2.60;;;;;;;;;;5045116;28;20509;-82
2024/02/16 03:55:12;;;;;;;5.43;2.10;;;;;;;;;;5061059;28;20420;-82
2024/02/16 03:57:40;;;;;;;4.73;1.50;;;;;;;;;;5043816;28;20413;-82
2024/02/16 04:00:06;;;;;;;7.27;2.07;;;;;;;;;;5060427;28;20412;-82
2024/02/16 04:02:32;;;;;;;4.80;2.10;;;;;;;;;;5044980;28;20419;-82
2024/02/16 04:04:58;;;;;;;3.00;2.17;;;;;;;;;;5043680;28;20466;-81
2024/02/16 04:07:24;;;;;;;5.63;2.33;;;;;;;;;;5044980;28;20833;-82
2024/02/16 04:09:50;;;;;;;2.93;1.50;;;;;;;;;;5044916;28;20967;-83
2024/02/16 04:12:16;;;;;;;5.10;2.03;;;;;;;;;;5043390;28;20426;-83
2024/02/16 04:14:43;;;;;;;2.77;1.43;;;;;;;;;;5045218;28;20828;-84
2024/02/16 04:17:09;;;;;;;4.20;1.83;;;;;;;;;;5044297;28;20507;-82
2024/02/16 04:19:37;;;;;;;2.57;1.40;;;;;;;;;;5043301;28;20560;-82
2024/02/16 04:22:03;;;;;;;6.33;2.17;;;;;;;;;;5045094;28;20518;-83
2024/02/16 04:24:29;;;;;;;5.27;1.70;;;;;;;;;;5044678;28;20500;-83
2024/02/16 04:26:55;;;;;;;3.63;1.80;;;;;;;;;;5043153;28;20424;-82
2024/02/16 04:29:21;;;;;;;6.57;2.33;;;;;;;;;;5043407;28;20421;-83
2024/02/16 04:31:47;;;;;;;5.10;1.50;;;;;;;;;;5059646;28;20462;-83
2024/02/16 04:34:14;;;;;;;3.33;1.57;;;;;;;;;;5059721;28;20434;-83
2024/02/16 04:36:40;;;;;;;3.23;1.97;;;;;;;;;;5058467;28;20415;-83
2024/02/16 04:39:05;;;;;;;2.73;1.43;;;;;;;;;;5044385;28;20450;-83
2024/02/16 04:41:31;;;;;;;7.10;1.63;;;;;;;;;;5044642;28;20199;-83
2024/02/16 04:43:58;;;;;;;3.87;2.20;;;;;;;;;;5042912;28;20815;-83
2024/02/16 04:46:24;;;;;;;3.93;1.03;;;;;;;;;;5044551;28;20698;-82
2024/02/16 04:48:50;;;;;;;5.87;1.30;;;;;;;;;;5043541;28;20567;-82
2024/02/16 04:51:15;;;;;;;3.63;1.20;;;;;;;;;;5058108;28;20507;-83
2024/02/16 04:53:41;;;;;;;3.30;1.63;;;;;;;;;;5044634;28;20849;-82
2024/02/16 04:56:08;;;;;;;3.80;1.23;;;;;;;;;;5043704;28;20496;-82
2024/02/16 04:58:34;;;;;;;2.20;1.00;;;;;;;;;;5042826;28;20422;-82
2024/02/16 05:01:00;;;;;;;3.33;1.37;;;;;;;;;;5044634;28;20884;-82
2024/02/16 05:03:25;;;;;;;6.53;1.47;;;;;;;;;;5042919;28;20560;-82
2024/02/16 05:05:52;;;;;;;2.77;0.70;;;;;;;;;;5043077;28;20443;-81
2024/02/16 05:08:18;;;;;;;4.83;1.30;;;;;;;;;;5044506;28;20471;-82
2024/02/16 05:10:44;;;;;;;2.53;1.87;;;;;;;;;;5043159;28;20420;-81
2024/02/16 05:13:11;;;;;;;2.50;1.67;;;;;;;;;;5043055;28;20427;-81
2024/02/16 05:15:37;;;;;;;3.53;1.20;;;;;;;;;;5060039;28;20824;-81
2024/02/16 05:18:03;;;;;;;5.20;1.40;;;;;;;;;;5090555;23;20488;-81
2024/02/16 05:20:29;;;;;;;3.87;1.43;;;;;;;;;;5042380;28;20416;-81
2024/02/16 05:22:56;;;;;;;4.30;2.23;;;;;;;;;;5044282;28;20442;-81
2024/02/16 05:25:22;;;;;;;5.23;1.37;;;;;;;;;;5042409;28;20175;-81
2024/02/16 05:27:48;;;;;;;3.27;1.00;;;;;;;;;;5042943;28;20504;-82
2024/02/16 05:30:15;;;;;;;3.63;1.77;;;;;;;;;;5042651;28;20839;-81
2024/02/16 05:32:44;;;;;;;3.30;1.20;;;;;;;;;;5039038;28;20414;-82
2024/02/16 05:35:17;;;;;;;2.60;1.33;;;;;;;;;;5042623;28;20419;-82
2024/02/16 05:37:51;;;;;;;2.20;0.90;;;;;;;;;;5040036;28;20456;-82
2024/02/16 05:40:30;;;;;;;3.77;1.73;;;;;;;;;;5041920;28;20439;-82
2024/02/16 05:42:58;;;;;;;3.37;1.20;;;;;;;;;;5042342;28;20404;-82
2024/02/16 05:45:26;;;;;;;3.63;1.60;;;;;;;;;;5041643;28;20787;-81
2024/02/16 05:47:52;;;;;;;3.90;1.30;;;;;;;;;;5043363;28;20475;-82
2024/02/16 05:50:20;;;;;;;3.73;1.83;;;;;;;;;;5041851;28;20458;-81
2024/02/16 05:52:46;;;;;;;1.83;1.20;;;;;;;;;;5042643;28;20407;-81
2024/02/16 05:55:13;;;;;;;2.30;1.13;;;;;;;;;;5043620;28;20435;-81
2024/02/16 05:57:39;;;;;;;5.37;2.13;;;;;;;;;;5043810;28;20499;-83
2024/02/16 06:00:06;;;;;;;6.03;1.27;;;;;;;;;;5042529;28;20499;-83
2024/02/16 06:02:32;;;;;;;3.87;2.07;;;;;;;;;;5041744;28;20937;-83
2024/02/16 06:04:58;;;;;;;5.37;1.60;;;;;;;;;;5041465;28;20416;-83
2024/02/16 06:07:24;;;;;;;3.77;1.30;;;;;;;;;;5042470;28;20819;-83
2024/02/16 06:09:50;;;;;;;5.33;1.60;;;;;;;;;;5043135;28;20420;-82
2024/02/16 06:12:16;;;;;;;5.60;1.30;;;;;;;;;;5041146;28;20894;-84
2024/02/16 06:14:42;;;;;;;3.37;0.90;;;;;;;;;;5042734;28;20438;-84
2024/02/16 06:17:21;;;;;;;3.67;1.67;;;;;;;;;;5042198;28;20762;-83
2024/02/16 06:19:47;;;;;;;4.80;1.40;;;;;;;;;;5046773;28;20418;-83
2024/02/16 06:22:14;;;;;;;3.93;1.70;;;;;;;;;;5052363;28;20444;-83
2024/02/16 06:24:40;;;;;;;2.13;0.83;;;;;;;;;;5052269;28;20506;-83
2024/02/16 06:27:08;;;;;;;3.70;1.20;;;;;;;;;;5050926;28;20511;-83
2024/02/16 06:29:33;;;;;;;4.10;0.93;;;;;;;;;;5051349;28;20451;-83
2024/02/16 06:32:01;;;;;;;4.43;1.40;;;;;;;;;;5050092;28;20428;-83
2024/02/16 06:34:27;;;;;;;3.17;1.10;;;;;;;;;;5052631;28;20168;-83
2024/02/16 06:36:53;;;;;;;4.03;1.20;;;;;;;;;;5052406;28;20884;-83
2024/02/16 06:39:19;;;;;;;4.70;1.20;;;;;;;;;;5051271;28;20215;-83
2024/02/16 06:41:46;;;;;;;4.27;1.30;;;;;;;;;;5052562;28;20418;-83
2024/02/16 06:44:15;;;;;;;2.53;1.00;;;;;;;;;;5051101;28;20428;-81
2024/02/16 06:46:42;;;;;;;2.67;1.30;;;;;;;;;;5052016;28;20410;-81
2024/02/16 06:49:08;;;;;;;4.30;1.20;;;;;;;;;;5052064;28;20609;-81
2024/02/16 06:51:34;;;;;;;4.10;0.90;;;;;;;;;;5052401;28;20499;-82
2024/02/16 06:54:00;;;;;;;3.70;1.20;;;;;;;;;;5051133;28;21012;-81
2024/02/16 06:56:29;;;;;;;3.57;1.53;;;;;;;;;;5052325;28;20774;-82
2024/02/16 06:58:55;;;;;;;2.50;0.83;;;;;;;;;;5052218;28;20423;-82
2024/02/16 07:01:21;;;;;;;3.33;1.60;;;;;;;;;;5052282;28;20522;-82
2024/02/16 07:03:47;;;;;;;2.80;1.50;;;;;;;;;;5051782;28;20521;-82
2024/02/16 07:06:13;;;;;;;4.40;0.67;;;;;;;;;;5052174;28;20491;-82
2024/02/16 07:08:42;;;;;;;2.73;0.80;;;;;;;;;;5052122;28;20233;-82
2024/02/16 07:11:11;;;;;;;3.65;1.35;;;;;;;;;;5052016;28;20840;-83
2024/02/16 07:13:37;;;;;;;3.37;1.40;;;;;;;;;;5052113;28;20192;-83
2024/02/16 07:16:03;;;;;;;2.47;0.73;;;;;;;;;;5050892;28;20916;-85
2024/02/16 07:18:30;;;;;;;2.70;1.47;;;;;;;;;;5051707;28;20471;-83
2024/02/16 07:20:56;;;;;;;2.17;0.90;;;;;;;;;;5052464;28;20434;-82
2024/02/16 07:23:22;;;;;;;5.60;0.77;;;;;;;;;;5051991;28;20424;-82
2024/02/16 07:25:48;;;;;;;3.27;1.30;;;;;;;;;;5051904;28;20405;-82
2024/02/16 07:28:14;;;;;;;2.97;1.13;;;;;;;;;;5052310;28;20979;-82
2024/02/16 07:30:40;;;;;;;7.20;1.40;;;;;;;;;;5034232;28;20440;-82
2024/02/16 07:33:10;;;;;;;3.20;0.60;;;;;;;;;;5031841;28;20463;-82
2024/02/16 07:35:36;;;;;;;3.20;1.17;;;;;;;;;;5032095;28;20420;-81
2024/02/16 07:38:03;;;;;;;4.07;0.87;;;;;;;;;;5042151;28;20415;-82
2024/02/16 07:40:29;;;;;;;2.43;0.83;;;;;;;;;;5052083;28;20411;-82
2024/02/16 07:42:55;;;;;;;2.33;0.70;;;;;;;;;;5054161;28;20423;-84
2024/02/16 07:45:21;;;;;;;2.40;0.97;;;;;;;;;;5055943;28;20442;-83
2024/02/16 07:47:47;;;;;;;4.37;1.10;;;;;;;;;;5055523;28;20506;-83
2024/02/16 07:50:13;;;;;;;6.77;1.27;;;;;;;;;;5055849;28;20437;-82
2024/02/16 07:52:43;;;;;;;2.63;1.43;;;;;;;;;;5055750;28;20411;-81
2024/02/16 07:55:09;;;;;;;2.00;0.90;;;;;;;;;;5054467;28;20512;-81
2024/02/16 07:57:36;;;;;;;3.00;1.40;;;;;;;;;;5055848;28;20469;-82
2024/02/16 08:00:03;;;;;;;4.73;1.07;;;;;;;;;;5055741;28;20773;-84
2024/02/16 08:02:29;;;;;;;4.20;0.60;;;;;;;;;;5055155;28;20414;-84
2024/02/16 08:04:55;;;;;;;3.67;0.93;;;;;;;;;;5055469;28;20414;-84
2024/02/16 08:07:21;;;;;;;2.43;1.17;;;;;;;;;;5055390;28;20465;-83
2024/02/16 08:09:47;;;;;;;4.53;1.60;;;;;;;;;;5055604;28;20460;-83
2024/02/16 08:12:13;;;;;;;2.70;1.20;;;;;;;;;;5055555;28;20981;-82
2024/02/16 08:14:40;;;;;;;3.60;0.97;;;;;;;;;;5055686;28;20419;-83
2024/02/16 08:17:06;;;;;;;6.67;0.80;;;;;;;;;;5054889;28;20937;-83
2024/02/16 08:19:34;;;;;;;6.77;1.40;;;;;;;;;;5055444;28;20428;-83
2024/02/16 08:22:00;;;;;;;3.17;0.70;;;;;;;;;;5054159;28;20836;-83
2024/02/16 08:24:29;;;;;;;3.60;0.73;;;;;;;;;;5055178;28;20428;-83
2024/02/16 08:26:56;;;;;;;3.63;2.40;;;;;;;;;;5037210;28;20408;-83
2024/02/16 08:29:22;;;;;;;3.00;0.77;;;;;;;;;;5055175;28;20924;-83
2024/02/16 08:31:50;;;;;;;3.20;1.03;;;;;;;;;;5055220;28;20408;-83
2024/02/16 08:34:16;;;;;;;4.93;1.20;;;;;;;;;;5054908;28;20398;-83
2024/02/16 08:36:46;;;;;;;3.47;1.10;;;;;;;;;;5053763;28;20414;-82
2024/02/16 08:39:13;;;;;;;2.20;0.93;;;;;;;;;;5054981;28;20450;-82
2024/02/16 08:41:39;;;;;;;3.57;1.00;;;;;;;;;;5052336;28;20767;-84
2024/02/16 08:44:10;;;;;;;5.77;0.80;;;;;;;;;;5034865;28;20440;-83
2024/02/16 08:46:36;;;;;;;3.37;1.17;;;;;;;;;;5034245;28;20414;-83
2024/02/16 08:49:03;;;;;;;3.73;0.70;;;;;;;;;;5034745;28;20504;-83
2024/02/16 08:51:29;;;;;;;2.43;1.10;;;;;;;;;;5033456;28;20461;-84
2024/02/16 08:53:55;;;;;;;2.00;0.93;;;;;;;;;;5033649;28;20420;-83
2024/02/16 08:56:21;;;;;;;4.67;1.00;;;;;;;;;;5034359;28;20438;-83
2024/02/16 08:58:47;;;;;;;1.73;0.73;;;;;;;;;;5034384;28;20811;-84
2024/02/16 09:01:13;;;;;;;3.77;1.00;;;;;;;;;;5033935;28;20401;-83
2024/02/16 09:03:40;;;;;;;7.30;1.97;;;;;;;;;;5034178;28;20417;-83
2024/02/16 09:06:06;;;;;;;2.20;0.77;;;;;;;;;;5034136;28;20413;-84
2024/02/16 09:08:34;;;;;;;5.70;1.80;;;;;;;;;;5032476;28;20476;-84
2024/02/16 09:11:01;;;;;;;2.20;1.40;;;;;;;;;;5034006;28;20469;-82
2024/02/16 09:13:27;;;;;;;3.97;1.03;;;;;;;;;;5033890;28;20421;-83
2024/02/16 09:15:53;;;;;;;6.90;1.10;;;;;;;;;;5033985;28;20773;-83
2024/02/16 09:18:19;;;;;;;3.40;0.80;;;;;;;;;;5033444;28;20479;-83
2024/02/16 09:20:45;;;;;;;0.80;0.40;;;;;;;;;;5033850;28;20977;-84
2024/02/16 09:23:11;;;;;;;3.17;1.20;;;;;;;;;;5033787;28;20257;-84
2024/02/16 09:25:37;;;;;;;1.30;0.60;;;;;;;;;;5033743;28;20412;-84
2024/02/16 09:28:03;;;;;;;3.80;0.90;;;;;;;;;;5033517;28;20542;-87
2024/02/16 09:30:29;;;;;;;3.07;0.80;;;;;;;;;;5033645;28;20901;-83
2024/02/16 09:32:55;;;;;;;2.93;0.70;;;;;;;;;;5033513;28;20467;-83
2024/02/16 09:35:21;;;;;;;2.70;0.77;;;;;;;;;;5034050;28;20418;-83
2024/02/16 09:37:47;;;;;;;1.53;0.63;;;;;;;;;;5034482;28;20397;-83
2024/02/16 09:40:13;;;;;;;2.43;0.90;;;;;;;;;;5034821;28;20895;-83
2024/02/16 09:42:39;;;;;;;2.13;1.33;;;;;;;;;;5042101;28;20460;-83
2024/02/16 09:45:12;;;;;;;4.40;0.40;;;;;;;;;;5054137;28;20456;-82
2024/02/16 09:47:39;;;;;;;3.90;0.60;;;;;;;;;;5054141;28;20536;-83
2024/02/16 09:50:05;;;;;;;3.47;0.53;;;;;;;;;;5054297;28;20466;-83
2024/02/16 09:52:31;;;;;;;2.60;0.80;;;;;;;;;;5054079;28;20400;-85
2024/02/16 09:54:57;;;;;;;2.20;0.80;;;;;;;;;;5054142;28;20782;-84
2024/02/16 09:57:23;;;;;;;3.03;0.97;;;;;;;;;;5054363;28;20787;-84
2024/02/16 09:59:52;;;;;;;5.90;1.20;;;;;;;;;;5054696;28;20511;-84
2024/02/16 10:02:18;;;;;;;7.93;1.50;;;;;;;;;;5054245;28;20505;-85
2024/02/16 10:04:44;;;;;;;2.07;0.77;;;;;;;;;;5054373;28;20416;-84
2024/02/16 10:07:10;;;;;;;3.97;1.30;;;;;;;;;;5053069;28;20408;-84
2024/02/16 10:09:36;;;;;;;2.00;1.00;;;;;;;;;;5053143;28;20421;-84
2024/02/16 10:12:02;;;;;;;1.97;0.40;;;;;;;;;;5053059;28;20903;-83
2024/02/16 10:14:31;;;;;;;7.17;0.60;;;;;;;;;;5052978;28;20503;-84
2024/02/16 10:17:02;;;;;;;2.10;0.63;;;;;;;;;;5052620;28;20422;-84
2024/02/16 10:19:36;;;;;;;1.90;0.43;;;;;;;;;;5052935;28;20426;-83
2024/02/16 10:22:07;;;;;;;2.20;0.90;;;;;;;;;;5051691;28;20425;-85
2024/02/16 10:24:33;;;;;;;2.40;0.87;;;;;;;;;;5052873;28;20505;-85
2024/02/16 10:26:59;;;;;;;2.50;0.60;;;;;;;;;;5053133;28;20438;-85
2024/02/16 10:29:27;;;;;;;3.77;0.53;;;;;;;;;;5052864;28;20427;-82
2024/02/16 10:31:53;;;;;;;2.60;0.50;;;;;;;;;;5052410;28;20477;-83
2024/02/16 10:34:21;;;;;;;2.43;0.50;;;;;;;;;;5051573;28;20419;-83
2024/02/16 10:36:47;;;;;;;4.43;0.80;;;;;;;;;;5051409;28;20506;-83
2024/02/16 10:39:14;;;;;;;2.40;1.00;;;;;;;;;;5052846;28;20414;-83
2024/02/16 10:41:41;;;;;;;3.43;0.90;;;;;;;;;;5053084;28;20458;-84
2024/02/16 10:44:07;;;;;;;5.47;0.93;;;;;;;;;;5052934;28;20782;-84
2024/02/16 10:46:33;;;;;;;3.23;0.60;;;;;;;;;;5052686;28;20415;-84
2024/02/16 10:49:00;;;;;;;2.17;0.53;;;;;;;;;;5052764;28;20553;-84
2024/02/16 10:51:52;;;;;;;2.63;0.90;;;;;;;;;;5038227;28;20430;-84
2024/02/16 10:54:23;;;;;;;1.07;0.60;;;;;;;;;;5031200;28;20535;-84
2024/02/16 10:56:49;;;;;;;2.20;0.93;;;;;;;;;;5033034;28;20420;-84
2024/02/16 10:59:17;;;;;;;1.80;0.30;;;;;;;;;;5033132;28;20415;-83
2024/02/16 11:01:43;;;;;;;3.90;0.90;;;;;;;;;;5032552;28;20421;-84
2024/02/16 11:04:12;;;;;;;1.83;0.40;;;;;;;;;;5032907;28;20494;-84
2024/02/16 11:06:47;;;;;;;2.23;0.50;;;;;;;;;;5032791;28;20419;-85
2024/02/16 11:09:31;;;;;;;2.83;0.50;;;;;;;;;;5032592;28;20510;-84
2024/02/16 11:12:01;;;;;;;1.77;0.27;;;;;;;;;;5032642;28;20409;-82
2024/02/16 11:14:36;;;;;;;1.97;0.27;;;;;;;;;;5032796;28;20412;-82
2024/02/16 11:17:03;;;;;;;1.17;0.60;;;;;;;;;;5033024;28;20499;-83
2024/02/16 11:19:30;;;;;;;2.17;0.87;;;;;;;;;;5031186;28;20483;-85
2024/02/16 11:21:57;;;;;;;2.70;0.80;;;;;;;;;;5036710;28;20408;-83
2024/02/16 11:24:30;;;;;;;1.90;0.70;;;;;;;;;;5035435;28;20415;-82
2024/02/16 11:26:56;;;;;;;3.10;0.43;;;;;;;;;;5034849;28;20424;-83
2024/02/16 11:29:22;;;;;;;1.90;0.63;;;;;;;;;;5036776;28;20937;-89
2024/02/16 11:31:48;;;;;;;3.40;1.00;;;;;;;;;;5036024;28;20410;-79
2024/02/16 11:34:25;;;;;;;1.83;0.70;;;;;;;;;;5036244;28;20783;-77
2024/02/16 11:36:53;;;;;;;1.73;1.03;;;;;;;;;;5036053;28;21091;-76
2024/02/16 11:39:19;;;;;;;1.23;0.60;;;;;;;;;;5051450;28;20432;-78
2024/02/16 11:41:53;;;;;;;1.70;0.60;;;;;;;;;;5036200;28;20422;-78
2024/02/16 11:44:19;;;;;;;3.30;0.70;;;;;;;;;;5036316;28;20426;-79
2024/02/16 11:46:45;;;;;;;1.80;1.07;;;;;;;;;;5035778;28;20419;-76
2024/02/16 11:49:11;;;;;;;2.40;0.73;;;;;;;;;;5035787;28;20573;-79
2024/02/16 11:51:39;;;;;;;4.50;1.17;;;;;;;;;;5051240;28;20403;-77
2024/02/16 11:54:05;;;;;;;3.60;0.60;;;;;;;;;;5051334;28;20421;-78
2024/02/16 11:56:31;;;;;;;4.23;1.07;;;;;;;;;;5035870;28;20418;-77
2024/02/16 11:58:58;;;;;;;2.90;0.30;;;;;;;;;;5051211;28;20756;-78
2024/02/16 12:01:24;;;;;;;4.97;1.17;;;;;;;;;;5035497;28;20888;-77
2024/02/16 12:03:50;;;;;;;4.67;0.90;;;;;;;;;;5051114;28;20433;-78
2024/02/16 12:06:23;;;;;;;3.90;0.87;;;;;;;;;;5035606;28;20410;-78
2024/02/16 12:08:52;;;;;;;3.93;0.73;;;;;;;;;;5035001;28;20530;-77
2024/02/16 12:11:18;;;;;;;2.27;0.57;;;;;;;;;;5042294;28;20430;-76
2024/02/16 12:13:45;;;;;;;5.63;1.00;;;;;;;;;;5054349;28;20840;-75
2024/02/16 12:16:11;;;;;;;3.50;1.00;;;;;;;;;;5055229;28;20406;-78
2024/02/16 12:18:37;;;;;;;1.90;0.53;;;;;;;;;;5055167;28;20466;-76
2024/02/16 12:21:07;;;;;;;4.60;1.00;;;;;;;;;;5055194;28;20491;-77
2024/02/16 12:23:34;;;;;;;3.23;1.63;;;;;;;;;;5055266;28;20419;-77
2024/02/16 12:26:00;;;;;;;2.00;0.90;;;;;;;;;;5055149;28;20418;-77
2024/02/16 12:28:32;;;;;;;2.13;0.97;;;;;;;;;;5052760;28;20888;-78
2024/02/16 12:30:58;;;;;;;2.37;0.77;;;;;;;;;;5054415;28;20510;-77
2024/02/16 12:33:25;;;;;;;3.30;1.20;;;;;;;;;;5053811;28;20415;-77
2024/02/16 12:35:52;;;;;;;3.83;0.70;;;;;;;;;;5054770;28;20949;-78
2024/02/16 12:38:20;;;;;;;4.60;0.80;;;;;;;;;;5053522;28;20433;-78
2024/02/16 12:40:47;;;;;;;2.37;1.20;;;;;;;;;;5053635;28;20423;-77
2024/02/16 12:43:13;;;;;;;4.90;1.10;;;;;;;;;;5054910;28;20780;-77
2024/02/16 12:45:39;;;;;;;2.27;1.00;;;;;;;;;;5054244;28;20407;-77
2024/02/16 12:48:06;;;;;;;1.87;1.53;;;;;;;;;;5054775;28;20470;-77
2024/02/16 12:50:32;;;;;;;4.43;1.30;;;;;;;;;;5053658;28;20422;-77
2024/02/16 12:52:59;;;;;;;3.33;1.67;;;;;;;;;;5054703;28;20423;-77
2024/02/16 12:55:25;;;;;;;3.07;0.90;;;;;;;;;;5054616;28;20818;-77
2024/02/16 12:57:51;;;;;;;7.03;1.07;;;;;;;;;;5053453;28;20421;-78
2024/02/16 13:00:18;;;;;;;3.90;1.20;;;;;;;;;;5054749;28;20426;-78
2024/02/16 13:02:44;;;;;;;4.70;1.70;;;;;;;;;;5054188;28;20433;-78
2024/02/16 13:05:13;;;;;;;4.60;1.17;;;;;;;;;;5054435;28;20415;-78
2024/02/16 13:07:41;;;;;;;6.23;2.10;;;;;;;;;;5054397;28;20455;-77
2024/02/16 13:10:07;;;;;;;5.63;1.47;;;;;;;;;;5054323;28;20449;-78
2024/02/16 13:12:33;;;;;;;3.00;1.20;;;;;;;;;;5054585;28;20461;-79
2024/02/16 13:14:59;;;;;;;3.30;1.80;;;;;;;;;;5054256;28;20789;-77
2024/02/16 13:17:26;;;;;;;3.80;1.47;;;;;;;;;;5052535;28;20932;-77
2024/02/16 13:19:52;;;;;;;6.57;1.60;;;;;;;;;;5054411;28;20514;-77
2024/02/16 13:22:18;;;;;;;5.53;1.40;;;;;;;;;;5054435;28;20429;-77
2024/02/16 13:24:44;;;;;;;2.70;1.50;;;;;;;;;;5054350;28;20444;-77
2024/02/16 13:27:10;;;;;;;5.00;1.30;;;;;;;;;;5054034;28;20472;-76
2024/02/16 13:29:36;;;;;;;5.50;1.93;;;;;;;;;;5054072;28;20434;-76
2024/02/16 13:32:03;;;;;;;4.63;2.13;;;;;;;;;;5053478;28;20480;-77
2024/02/16 13:34:30;;;;;;;4.67;1.60;;;;;;;;;;5053938;28;20417;-77
2024/02/16 13:36:56;;;;;;;4.07;1.87;;;;;;;;;;5052432;28;20509;-76
2024/02/16 13:39:22;;;;;;;5.93;1.93;;;;;;;;;;5053995;28;20415;-76
2024/02/16 13:41:50;;;;;;;7.93;1.70;;;;;;;;;;5053404;28;20446;-76
2024/02/16 13:44:16;;;;;;;4.33;3.40;;;;;;;;;;5053583;28;20414;-77
2024/02/16 13:46:42;;;;;;;4.00;1.80;;;;;;;;;;5053091;28;20430;-77
2024/02/16 13:49:08;;;;;;;4.37;1.20;;;;;;;;;;5053512;28;20569;-77
2024/02/16 13:51:34;;;;;;;4.50;1.90;;;;;;;;;;5053385;28;20913;-78
2024/02/16 13:54:00;;;;;;;5.23;1.80;;;;;;;;;;5053552;28;20411;-76
2024/02/16 13:56:26;;;;;;;5.73;2.90;;;;;;;;;;5052254;28;20413;-77
2024/02/16 13:58:52;;;;;;;5.03;1.90;;;;;;;;;;5053237;28;20410;-79
2024/02/16 14:01:18;;;;;;;7.37;1.87;;;;;;;;;;5052942;28;20411;-77
2024/02/16 14:03:44;;;;;;;5.50;2.57;;;;;;;;;;5053231;28;20450;-78
2024/02/16 14:06:11;;;;;;;9.07;2.13;;;;;;;;;;5053179;28;20456;-78
2024/02/16 14:08:37;;;;;;;4.30;2.30;;;;;;;;;;5053035;28;20596;-78
2024/02/16 14:11:03;;;;;;;6.93;1.67;;;;;;;;;;5053083;28;20976;-77
2024/02/16 14:13:29;;;;;;;4.20;2.23;;;;;;;;;;5053023;28;20426;-78
2024/02/16 14:15:56;;;;;;;7.93;3.77;;;;;;;;;;5052585;28;20494;-77
2024/02/16 14:18:22;;;;;;;5.67;2.50;;;;;;;;;;5052671;28;20467;-78
2024/02/16 14:20:48;;;;;;;4.50;2.33;;;;;;;;;;5051667;28;20418;-78
2024/02/16 14:23:14;;;;;;;6.70;3.33;;;;;;;;;;5052850;28;20419;-77
2024/02/16 14:25:40;;;;;;;2.97;1.50;;;;;;;;;;5052858;28;20466;-77
2024/02/16 14:28:07;;;;;;;6.10;2.13;;;;;;;;;;5052765;28;20511;-77
2024/02/16 14:30:33;;;;;;;3.53;2.67;;;;;;;;;;5052349;28;20415;-77
2024/02/16 14:32:59;;;;;;;5.40;1.90;;;;;;;;;;5051342;28;20435;-77
2024/02/16 14:35:25;;;;;;;3.80;2.20;;;;;;;;;;5052720;28;20410;-77
2024/02/16 14:37:51;;;;;;;4.47;3.27;;;;;;;;;;5052652;28;20448;-77
2024/02/16 14:40:17;;;;;;;4.43;1.63;;;;;;;;;;5052684;28;20415;-78